sensor_id;sensor_type;location;lat;lon;timestamp;P1;durP1;ratioP1;P2;durP2;ratioP2
7563;SDS011;3823;53.586;10.040;2023-11-22T00:00:36;4.57;;;3.40;;
7563;SDS011;3823;53.586;10.040;2023-11-22T00:03:01;3.97;;;3.05;;
7563;SDS011;3823;53.586;10.040;2023-11-22T00:05:27;5.03;;;3.78;;
7563;SDS011;3823;53.586;10.040;2023-11-22T00:07:53;4.43;;;3.25;;
7563;SDS011;3823;53.586;10.040;2023-11-22T00:10:18;4.65;;;3.38;;
7563;SDS011;3823;53.586;10.040;2023-11-22T00:12:44;5.18;;;3.25;;
7563;SDS011;3823;53.586;10.040;2023-11-22T00:15:09;3.53;;;3.25;;
7563;SDS011;3823;53.586;10.040;2023-11-22T00:17:36;3.72;;;2.88;;
7563;SDS011;3823;53.586;10.040;2023-11-22T00:20:02;4.53;;;3.63;;
7563;SDS011;3823;53.586;10.040;2023-11-22T00:22:33;4.80;;;3.42;;
7563;SDS011;3823;53.586;10.040;2023-11-22T00:25:00;3.42;;;3.13;;
7563;SDS011;3823;53.586;10.040;2023-11-22T00:27:26;4.22;;;3.72;;
7563;SDS011;3823;53.586;10.040;2023-11-22T00:29:52;5.03;;;3.13;;
7563;SDS011;3823;53.586;10.040;2023-11-22T00:32:18;3.17;;;2.88;;
7563;SDS011;3823;53.586;10.040;2023-11-22T00:34:44;6.20;;;3.55;;
7563;SDS011;3823;53.586;10.040;2023-11-22T00:37:09;5.20;;;3.65;;
7563;SDS011;3823;53.586;10.040;2023-11-22T00:39:35;3.80;;;3.40;;
7563;SDS011;3823;53.586;10.040;2023-11-22T00:42:02;5.72;;;4.10;;
7563;SDS011;3823;53.586;10.040;2023-11-22T00:44:28;7.97;;;3.65;;
7563;SDS011;3823;53.586;10.040;2023-11-22T00:46:54;4.80;;;3.60;;
7563;SDS011;3823;53.586;10.040;2023-11-22T00:49:22;5.18;;;3.40;;
7563;SDS011;3823;53.586;10.040;2023-11-22T00:51:47;6.68;;;2.85;;
7563;SDS011;3823;53.586;10.040;2023-11-22T00:54:13;3.45;;;3.10;;
7563;SDS011;3823;53.586;10.040;2023-11-22T00:56:40;4.65;;;3.58;;
7563;SDS011;3823;53.586;10.040;2023-11-22T00:59:05;4.88;;;3.22;;
7563;SDS011;3823;53.586;10.040;2023-11-22T01:01:31;6.07;;;3.22;;
7563;SDS011;3823;53.586;10.040;2023-11-22T01:03:56;20.35;;;5.63;;
7563;SDS011;3823;53.586;10.040;2023-11-22T01:06:22;6.90;;;3.25;;
7563;SDS011;3823;53.586;10.040;2023-11-22T01:08:49;6.22;;;3.50;;
7563;SDS011;3823;53.586;10.040;2023-11-22T01:11:14;3.58;;;3.22;;
7563;SDS011;3823;53.586;10.040;2023-11-22T01:13:40;4.65;;;3.63;;
7563;SDS011;3823;53.586;10.040;2023-11-22T01:16:08;3.90;;;3.42;;
7563;SDS011;3823;53.586;10.040;2023-11-22T01:18:38;9.32;;;3.03;;
7563;SDS011;3823;53.586;10.040;2023-11-22T01:21:04;4.13;;;2.97;;
7563;SDS011;3823;53.586;10.040;2023-11-22T01:23:30;4.88;;;3.88;;
7563;SDS011;3823;53.586;10.040;2023-11-22T01:25:59;5.47;;;3.67;;
7563;SDS011;3823;53.586;10.040;2023-11-22T01:28:25;5.22;;;3.30;;
7563;SDS011;3823;53.586;10.040;2023-11-22T01:30:54;4.72;;;4.00;;
7563;SDS011;3823;53.586;10.040;2023-11-22T01:33:20;3.72;;;3.35;;
7563;SDS011;3823;53.586;10.040;2023-11-22T01:35:48;5.18;;;3.60;;
7563;SDS011;3823;53.586;10.040;2023-11-22T01:38:15;5.00;;;3.05;;
7563;SDS011;3823;53.586;10.040;2023-11-22T01:40:47;3.30;;;3.00;;
7563;SDS011;3823;53.586;10.040;2023-11-22T01:43:19;4.68;;;3.22;;
7563;SDS011;3823;53.586;10.040;2023-11-22T01:45:48;5.00;;;3.55;;
7563;SDS011;3823;53.586;10.040;2023-11-22T01:48:14;4.20;;;3.03;;
7563;SDS011;3823;53.586;10.040;2023-11-22T01:50:40;5.88;;;3.28;;
7563;SDS011;3823;53.586;10.040;2023-11-22T01:53:08;4.30;;;3.03;;
7563;SDS011;3823;53.586;10.040;2023-11-22T01:55:37;4.70;;;3.90;;
7563;SDS011;3823;53.586;10.040;2023-11-22T01:58:04;3.40;;;2.92;;
7563;SDS011;3823;53.586;10.040;2023-11-22T02:00:36;3.80;;;3.40;;
7563;SDS011;3823;53.586;10.040;2023-11-22T02:03:10;4.43;;;2.97;;
7563;SDS011;3823;53.586;10.040;2023-11-22T02:05:38;8.93;;;3.83;;
7563;SDS011;3823;53.586;10.040;2023-11-22T02:08:11;6.07;;;2.83;;
7563;SDS011;3823;53.586;10.040;2023-11-22T02:10:37;7.43;;;3.58;;
7563;SDS011;3823;53.586;10.040;2023-11-22T02:13:04;4.65;;;3.35;;
7563;SDS011;3823;53.586;10.040;2023-11-22T02:15:32;5.13;;;3.20;;
7563;SDS011;3823;53.586;10.040;2023-11-22T02:18:01;4.18;;;3.03;;
7563;SDS011;3823;53.586;10.040;2023-11-22T02:20:28;3.60;;;2.78;;
7563;SDS011;3823;53.586;10.040;2023-11-22T02:22:55;3.75;;;3.05;;
7563;SDS011;3823;53.586;10.040;2023-11-22T02:25:22;6.10;;;3.15;;
7563;SDS011;3823;53.586;10.040;2023-11-22T02:27:47;3.38;;;3.08;;
7563;SDS011;3823;53.586;10.040;2023-11-22T02:30:13;5.40;;;3.45;;
7563;SDS011;3823;53.586;10.040;2023-11-22T02:32:39;3.20;;;2.78;;
7563;SDS011;3823;53.586;10.040;2023-11-22T02:35:05;4.32;;;2.90;;
7563;SDS011;3823;53.586;10.040;2023-11-22T02:37:34;4.18;;;3.00;;
7563;SDS011;3823;53.586;10.040;2023-11-22T02:42:41;5.93;;;3.65;;
7563;SDS011;3823;53.586;10.040;2023-11-22T02:45:06;5.13;;;3.67;;
7563;SDS011;3823;53.586;10.040;2023-11-22T02:47:32;3.35;;;2.72;;
7563;SDS011;3823;53.586;10.040;2023-11-22T02:49:59;4.35;;;2.80;;
7563;SDS011;3823;53.586;10.040;2023-11-22T02:52:26;4.75;;;2.90;;
7563;SDS011;3823;53.586;10.040;2023-11-22T02:54:51;3.67;;;2.97;;
7563;SDS011;3823;53.586;10.040;2023-11-22T02:57:17;3.95;;;3.20;;
7563;SDS011;3823;53.586;10.040;2023-11-22T02:59:43;3.88;;;2.65;;
7563;SDS011;3823;53.586;10.040;2023-11-22T03:02:09;3.45;;;2.92;;
7563;SDS011;3823;53.586;10.040;2023-11-22T03:04:34;4.75;;;3.10;;
7563;SDS011;3823;53.586;10.040;2023-11-22T03:07:00;5.55;;;3.28;;
7563;SDS011;3823;53.586;10.040;2023-11-22T03:09:25;4.25;;;3.20;;
7563;SDS011;3823;53.586;10.040;2023-11-22T03:11:54;3.67;;;3.25;;
7563;SDS011;3823;53.586;10.040;2023-11-22T03:14:20;3.92;;;3.25;;
7563;SDS011;3823;53.586;10.040;2023-11-22T03:16:46;3.33;;;2.92;;
7563;SDS011;3823;53.586;10.040;2023-11-22T03:19:13;3.60;;;3.30;;
7563;SDS011;3823;53.586;10.040;2023-11-22T03:21:39;4.22;;;3.15;;
7563;SDS011;3823;53.586;10.040;2023-11-22T03:24:06;4.22;;;3.33;;
7563;SDS011;3823;53.586;10.040;2023-11-22T03:26:33;4.20;;;3.38;;
7563;SDS011;3823;53.586;10.040;2023-11-22T03:28:59;5.82;;;4.03;;
7563;SDS011;3823;53.586;10.040;2023-11-22T03:31:25;5.45;;;4.07;;
7563;SDS011;3823;53.586;10.040;2023-11-22T03:33:52;4.70;;;4.25;;
7563;SDS011;3823;53.586;10.040;2023-11-22T03:36:19;5.30;;;4.38;;
7563;SDS011;3823;53.586;10.040;2023-11-22T03:38:45;6.85;;;4.90;;
7563;SDS011;3823;53.586;10.040;2023-11-22T03:41:11;5.40;;;4.90;;
7563;SDS011;3823;53.586;10.040;2023-11-22T03:43:36;5.20;;;4.65;;
7563;SDS011;3823;53.586;10.040;2023-11-22T03:46:03;8.48;;;6.00;;
7563;SDS011;3823;53.586;10.040;2023-11-22T03:48:28;8.63;;;6.70;;
7563;SDS011;3823;53.586;10.040;2023-11-22T03:50:54;9.23;;;6.53;;
7563;SDS011;3823;53.586;10.040;2023-11-22T03:53:19;9.10;;;6.50;;
7563;SDS011;3823;53.586;10.040;2023-11-22T03:55:46;8.63;;;7.20;;
7563;SDS011;3823;53.586;10.040;2023-11-22T03:58:14;10.13;;;6.85;;
7563;SDS011;3823;53.586;10.040;2023-11-22T04:00:40;7.20;;;5.40;;
7563;SDS011;3823;53.586;10.040;2023-11-22T04:03:06;8.93;;;5.47;;
7563;SDS011;3823;53.586;10.040;2023-11-22T04:05:32;5.53;;;4.85;;
7563;SDS011;3823;53.586;10.040;2023-11-22T04:07:57;5.90;;;4.55;;
7563;SDS011;3823;53.586;10.040;2023-11-22T04:10:23;7.00;;;4.80;;
7563;SDS011;3823;53.586;10.040;2023-11-22T04:12:49;7.20;;;4.50;;
7563;SDS011;3823;53.586;10.040;2023-11-22T04:15:14;5.28;;;3.90;;
7563;SDS011;3823;53.586;10.040;2023-11-22T04:17:40;4.97;;;3.88;;
7563;SDS011;3823;53.586;10.040;2023-11-22T04:20:06;5.45;;;4.30;;
7563;SDS011;3823;53.586;10.040;2023-11-22T04:22:34;11.68;;;4.22;;
7563;SDS011;3823;53.586;10.040;2023-11-22T04:25:00;8.00;;;3.30;;
7563;SDS011;3823;53.586;10.040;2023-11-22T04:27:27;3.72;;;3.38;;
7563;SDS011;3823;53.586;10.040;2023-11-22T04:29:52;5.45;;;4.18;;
7563;SDS011;3823;53.586;10.040;2023-11-22T04:32:18;5.00;;;4.28;;
7563;SDS011;3823;53.586;10.040;2023-11-22T04:34:44;4.63;;;3.88;;
7563;SDS011;3823;53.586;10.040;2023-11-22T04:37:09;12.80;;;5.30;;
7563;SDS011;3823;53.586;10.040;2023-11-22T04:39:35;5.30;;;3.80;;
7563;SDS011;3823;53.586;10.040;2023-11-22T04:42:00;8.82;;;3.40;;
7563;SDS011;3823;53.586;10.040;2023-11-22T04:44:26;4.22;;;3.83;;
7563;SDS011;3823;53.586;10.040;2023-11-22T04:46:51;4.97;;;3.90;;
7563;SDS011;3823;53.586;10.040;2023-11-22T04:49:17;5.07;;;3.90;;
7563;SDS011;3823;53.586;10.040;2023-11-22T04:51:43;6.43;;;4.88;;
7563;SDS011;3823;53.586;10.040;2023-11-22T04:54:10;4.85;;;4.22;;
7563;SDS011;3823;53.586;10.040;2023-11-22T04:56:36;4.85;;;3.63;;
7563;SDS011;3823;53.586;10.040;2023-11-22T04:59:02;6.63;;;4.70;;
7563;SDS011;3823;53.586;10.040;2023-11-22T05:01:34;4.57;;;4.18;;
7563;SDS011;3823;53.586;10.040;2023-11-22T05:04:00;7.25;;;4.75;;
7563;SDS011;3823;53.586;10.040;2023-11-22T05:06:26;5.30;;;3.67;;
7563;SDS011;3823;53.586;10.040;2023-11-22T05:08:52;4.35;;;3.40;;
7563;SDS011;3823;53.586;10.040;2023-11-22T05:11:18;4.90;;;4.07;;
7563;SDS011;3823;53.586;10.040;2023-11-22T05:13:44;6.40;;;4.50;;
7563;SDS011;3823;53.586;10.040;2023-11-22T05:16:09;6.38;;;3.95;;
7563;SDS011;3823;53.586;10.040;2023-11-22T05:18:35;5.05;;;3.67;;
7563;SDS011;3823;53.586;10.040;2023-11-22T05:21:01;6.15;;;4.07;;
7563;SDS011;3823;53.586;10.040;2023-11-22T05:23:29;5.75;;;4.20;;
7563;SDS011;3823;53.586;10.040;2023-11-22T05:25:54;4.15;;;3.60;;
7563;SDS011;3823;53.586;10.040;2023-11-22T05:28:21;4.30;;;3.80;;
7563;SDS011;3823;53.586;10.040;2023-11-22T05:30:47;4.43;;;3.45;;
7563;SDS011;3823;53.586;10.040;2023-11-22T05:33:13;5.75;;;4.28;;
7563;SDS011;3823;53.586;10.040;2023-11-22T05:35:38;5.25;;;4.57;;
7563;SDS011;3823;53.586;10.040;2023-11-22T05:38:05;6.05;;;4.10;;
7563;SDS011;3823;53.586;10.040;2023-11-22T05:40:31;4.07;;;3.67;;
7563;SDS011;3823;53.586;10.040;2023-11-22T05:42:57;4.55;;;3.78;;
7563;SDS011;3823;53.586;10.040;2023-11-22T05:45:23;4.10;;;3.70;;
7563;SDS011;3823;53.586;10.040;2023-11-22T05:47:50;4.20;;;3.55;;
7563;SDS011;3823;53.586;10.040;2023-11-22T05:50:16;4.55;;;4.13;;
7563;SDS011;3823;53.586;10.040;2023-11-22T05:52:41;7.97;;;4.22;;
7563;SDS011;3823;53.586;10.040;2023-11-22T05:55:07;5.00;;;4.22;;
7563;SDS011;3823;53.586;10.040;2023-11-22T05:57:33;4.10;;;3.40;;
7563;SDS011;3823;53.586;10.040;2023-11-22T05:59:59;4.55;;;4.05;;
7563;SDS011;3823;53.586;10.040;2023-11-22T06:02:24;4.40;;;3.42;;
7563;SDS011;3823;53.586;10.040;2023-11-22T06:04:50;6.68;;;4.38;;
7563;SDS011;3823;53.586;10.040;2023-11-22T06:07:15;7.55;;;4.70;;
7563;SDS011;3823;53.586;10.040;2023-11-22T06:09:41;6.47;;;5.05;;
7563;SDS011;3823;53.586;10.040;2023-11-22T06:12:06;5.40;;;4.30;;
7563;SDS011;3823;53.586;10.040;2023-11-22T06:14:32;5.05;;;4.55;;
7563;SDS011;3823;53.586;10.040;2023-11-22T06:16:57;7.10;;;5.22;;
7563;SDS011;3823;53.586;10.040;2023-11-22T06:19:23;6.38;;;4.90;;
7563;SDS011;3823;53.586;10.040;2023-11-22T06:21:48;6.00;;;5.32;;
7563;SDS011;3823;53.586;10.040;2023-11-22T06:24:14;8.43;;;5.47;;
7563;SDS011;3823;53.586;10.040;2023-11-22T06:26:42;7.28;;;5.20;;
7563;SDS011;3823;53.586;10.040;2023-11-22T06:29:08;8.23;;;4.80;;
7563;SDS011;3823;53.586;10.040;2023-11-22T06:31:34;8.20;;;5.65;;
7563;SDS011;3823;53.586;10.040;2023-11-22T06:34:00;7.78;;;6.15;;
7563;SDS011;3823;53.586;10.040;2023-11-22T06:36:26;6.85;;;5.18;;
7563;SDS011;3823;53.586;10.040;2023-11-22T06:38:52;8.38;;;5.85;;
7563;SDS011;3823;53.586;10.040;2023-11-22T06:41:19;7.53;;;5.47;;
7563;SDS011;3823;53.586;10.040;2023-11-22T06:43:46;7.20;;;4.50;;
7563;SDS011;3823;53.586;10.040;2023-11-22T06:46:15;8.18;;;5.13;;
7563;SDS011;3823;53.586;10.040;2023-11-22T06:48:41;7.38;;;5.53;;
7563;SDS011;3823;53.586;10.040;2023-11-22T06:51:09;7.85;;;5.30;;
7563;SDS011;3823;53.586;10.040;2023-11-22T06:53:34;7.80;;;6.13;;
7563;SDS011;3823;53.586;10.040;2023-11-22T06:56:00;5.88;;;5.28;;
7563;SDS011;3823;53.586;10.040;2023-11-22T06:58:26;11.63;;;5.90;;
7563;SDS011;3823;53.586;10.040;2023-11-22T07:00:52;9.40;;;5.38;;
7563;SDS011;3823;53.586;10.040;2023-11-22T07:03:17;9.93;;;5.90;;
7563;SDS011;3823;53.586;10.040;2023-11-22T07:05:43;14.63;;;5.22;;
7563;SDS011;3823;53.586;10.040;2023-11-22T07:08:09;11.63;;;5.95;;
7563;SDS011;3823;53.586;10.040;2023-11-22T07:10:35;8.80;;;4.88;;
7563;SDS011;3823;53.586;10.040;2023-11-22T07:13:01;5.97;;;4.68;;
7563;SDS011;3823;53.586;10.040;2023-11-22T07:15:27;6.85;;;5.20;;
7563;SDS011;3823;53.586;10.040;2023-11-22T07:17:53;7.82;;;5.68;;
7563;SDS011;3823;53.586;10.040;2023-11-22T07:20:19;11.30;;;6.30;;
7563;SDS011;3823;53.586;10.040;2023-11-22T07:22:45;8.18;;;5.20;;
7563;SDS011;3823;53.586;10.040;2023-11-22T07:25:20;4.82;;;4.32;;
7563;SDS011;3823;53.586;10.040;2023-11-22T07:27:49;7.18;;;4.93;;
7563;SDS011;3823;53.586;10.040;2023-11-22T07:30:16;7.63;;;5.45;;
7563;SDS011;3823;53.586;10.040;2023-11-22T07:32:47;8.20;;;5.18;;
7563;SDS011;3823;53.586;10.040;2023-11-22T07:35:17;5.53;;;5.03;;
7563;SDS011;3823;53.586;10.040;2023-11-22T07:37:44;7.65;;;6.03;;
7563;SDS011;3823;53.586;10.040;2023-11-22T07:40:11;9.00;;;5.60;;
7563;SDS011;3823;53.586;10.040;2023-11-22T07:42:38;8.63;;;6.22;;
7563;SDS011;3823;53.586;10.040;2023-11-22T07:45:04;9.35;;;5.57;;
7563;SDS011;3823;53.586;10.040;2023-11-22T07:47:30;8.30;;;5.70;;
7563;SDS011;3823;53.586;10.040;2023-11-22T07:49:56;9.20;;;5.85;;
7563;SDS011;3823;53.586;10.040;2023-11-22T07:52:22;8.35;;;5.50;;
7563;SDS011;3823;53.586;10.040;2023-11-22T07:54:55;9.80;;;6.10;;
7563;SDS011;3823;53.586;10.040;2023-11-22T07:57:21;10.90;;;5.80;;
7563;SDS011;3823;53.586;10.040;2023-11-22T07:59:48;8.35;;;5.15;;
7563;SDS011;3823;53.586;10.040;2023-11-22T08:02:14;8.02;;;5.80;;
7563;SDS011;3823;53.586;10.040;2023-11-22T08:04:43;9.77;;;6.50;;
7563;SDS011;3823;53.586;10.040;2023-11-22T08:07:10;11.70;;;7.25;;
7563;SDS011;3823;53.586;10.040;2023-11-22T08:09:38;14.18;;;7.25;;
7563;SDS011;3823;53.586;10.040;2023-11-22T08:12:03;8.20;;;6.32;;
7563;SDS011;3823;53.586;10.040;2023-11-22T08:14:29;10.63;;;6.55;;
7563;SDS011;3823;53.586;10.040;2023-11-22T08:16:55;6.22;;;5.60;;
7563;SDS011;3823;53.586;10.040;2023-11-22T08:19:21;10.45;;;6.68;;
7563;SDS011;3823;53.586;10.040;2023-11-22T08:21:49;10.35;;;6.05;;
7563;SDS011;3823;53.586;10.040;2023-11-22T08:24:15;12.88;;;6.88;;
7563;SDS011;3823;53.586;10.040;2023-11-22T08:26:41;8.73;;;5.75;;
7563;SDS011;3823;53.586;10.040;2023-11-22T08:29:07;9.45;;;5.78;;
7563;SDS011;3823;53.586;10.040;2023-11-22T08:31:33;8.52;;;5.93;;
7563;SDS011;3823;53.586;10.040;2023-11-22T08:34:01;9.25;;;5.85;;
7563;SDS011;3823;53.586;10.040;2023-11-22T08:36:29;9.77;;;5.65;;
7563;SDS011;3823;53.586;10.040;2023-11-22T08:38:56;11.73;;;5.85;;
7563;SDS011;3823;53.586;10.040;2023-11-22T08:41:25;7.05;;;6.32;;
7563;SDS011;3823;53.586;10.040;2023-11-22T08:43:50;7.85;;;6.25;;
7563;SDS011;3823;53.586;10.040;2023-11-22T08:46:16;13.82;;;6.50;;
7563;SDS011;3823;53.586;10.040;2023-11-22T08:48:41;16.60;;;6.72;;
7563;SDS011;3823;53.586;10.040;2023-11-22T08:51:07;11.88;;;6.35;;
7563;SDS011;3823;53.586;10.040;2023-11-22T08:53:32;9.57;;;6.78;;
7563;SDS011;3823;53.586;10.040;2023-11-22T08:55:58;10.50;;;5.82;;
7563;SDS011;3823;53.586;10.040;2023-11-22T08:58:24;11.07;;;6.55;;
7563;SDS011;3823;53.586;10.040;2023-11-22T09:00:49;10.10;;;5.90;;
7563;SDS011;3823;53.586;10.040;2023-11-22T09:03:15;19.50;;;6.97;;
7563;SDS011;3823;53.586;10.040;2023-11-22T09:05:42;14.27;;;8.18;;
7563;SDS011;3823;53.586;10.040;2023-11-22T09:08:08;10.57;;;6.38;;
7563;SDS011;3823;53.586;10.040;2023-11-22T09:10:38;7.80;;;5.72;;
7563;SDS011;3823;53.586;10.040;2023-11-22T09:13:04;11.07;;;6.50;;
7563;SDS011;3823;53.586;10.040;2023-11-22T09:15:30;8.95;;;5.75;;
7563;SDS011;3823;53.586;10.040;2023-11-22T09:17:58;19.55;;;7.45;;
7563;SDS011;3823;53.586;10.040;2023-11-22T09:20:24;10.25;;;6.85;;
7563;SDS011;3823;53.586;10.040;2023-11-22T09:22:51;14.20;;;7.57;;
7563;SDS011;3823;53.586;10.040;2023-11-22T09:25:24;9.82;;;7.32;;
7563;SDS011;3823;53.586;10.040;2023-11-22T09:27:51;10.20;;;7.32;;
7563;SDS011;3823;53.586;10.040;2023-11-22T09:30:21;11.63;;;7.68;;
7563;SDS011;3823;53.586;10.040;2023-11-22T09:33:07;10.40;;;7.30;;
7563;SDS011;3823;53.586;10.040;2023-11-22T09:35:33;10.82;;;6.82;;
7563;SDS011;3823;53.586;10.040;2023-11-22T09:38:02;10.88;;;6.85;;
7563;SDS011;3823;53.586;10.040;2023-11-22T09:40:29;15.23;;;9.07;;
7563;SDS011;3823;53.586;10.040;2023-11-22T09:42:58;9.18;;;7.68;;
7563;SDS011;3823;53.586;10.040;2023-11-22T09:45:26;11.60;;;7.32;;
7563;SDS011;3823;53.586;10.040;2023-11-22T09:47:52;11.43;;;6.95;;
7563;SDS011;3823;53.586;10.040;2023-11-22T09:50:20;10.98;;;7.47;;
7563;SDS011;3823;53.586;10.040;2023-11-22T09:53:30;13.88;;;7.03;;
7563;SDS011;3823;53.586;10.040;2023-11-22T09:56:01;14.63;;;7.55;;
7563;SDS011;3823;53.586;10.040;2023-11-22T09:58:32;12.52;;;6.93;;
7563;SDS011;3823;53.586;10.040;2023-11-22T10:01:00;12.70;;;7.40;;
7563;SDS011;3823;53.586;10.040;2023-11-22T10:03:26;9.40;;;6.72;;
7563;SDS011;3823;53.586;10.040;2023-11-22T10:05:54;9.20;;;7.00;;
7563;SDS011;3823;53.586;10.040;2023-11-22T10:08:25;13.43;;;7.30;;
7563;SDS011;3823;53.586;10.040;2023-11-22T10:10:52;12.65;;;6.28;;
7563;SDS011;3823;53.586;10.040;2023-11-22T10:13:19;12.02;;;6.57;;
7563;SDS011;3823;53.586;10.040;2023-11-22T10:15:46;9.63;;;6.80;;
7563;SDS011;3823;53.586;10.040;2023-11-22T10:18:13;13.40;;;6.70;;
7563;SDS011;3823;53.586;10.040;2023-11-22T10:20:40;9.18;;;5.60;;
7563;SDS011;3823;53.586;10.040;2023-11-22T10:23:10;10.18;;;6.05;;
7563;SDS011;3823;53.586;10.040;2023-11-22T10:25:45;7.22;;;4.95;;
7563;SDS011;3823;53.586;10.040;2023-11-22T10:28:21;9.95;;;5.40;;
7563;SDS011;3823;53.586;10.040;2023-11-22T10:30:49;11.20;;;5.38;;
7563;SDS011;3823;53.586;10.040;2023-11-22T10:33:16;7.68;;;5.22;;
7563;SDS011;3823;53.586;10.040;2023-11-22T10:35:46;5.38;;;4.65;;
7563;SDS011;3823;53.586;10.040;2023-11-22T10:38:13;12.10;;;4.93;;
7563;SDS011;3823;53.586;10.040;2023-11-22T10:40:40;11.52;;;6.00;;
7563;SDS011;3823;53.586;10.040;2023-11-22T10:43:06;7.32;;;5.63;;
7563;SDS011;3823;53.586;10.040;2023-11-22T10:45:35;13.48;;;5.30;;
7563;SDS011;3823;53.586;10.040;2023-11-22T10:48:02;6.70;;;5.72;;
7563;SDS011;3823;53.586;10.040;2023-11-22T10:50:29;8.80;;;5.20;;
7563;SDS011;3823;53.586;10.040;2023-11-22T10:52:56;6.72;;;4.82;;
7563;SDS011;3823;53.586;10.040;2023-11-22T10:55:26;8.13;;;4.30;;
7563;SDS011;3823;53.586;10.040;2023-11-22T10:57:53;9.77;;;4.72;;
7563;SDS011;3823;53.586;10.040;2023-11-22T11:00:21;6.53;;;4.95;;
7563;SDS011;3823;53.586;10.040;2023-11-22T11:02:51;6.28;;;4.65;;
7563;SDS011;3823;53.586;10.040;2023-11-22T11:05:21;12.40;;;5.10;;
7563;SDS011;3823;53.586;10.040;2023-11-22T11:10:50;5.88;;;4.15;;
7563;SDS011;3823;53.586;10.040;2023-11-22T11:13:16;8.52;;;4.32;;
7563;SDS011;3823;53.586;10.040;2023-11-22T11:15:43;8.45;;;4.75;;
7563;SDS011;3823;53.586;10.040;2023-11-22T11:18:10;9.27;;;5.13;;
7563;SDS011;3823;53.586;10.040;2023-11-22T11:23:16;8.40;;;5.85;;
7563;SDS011;3823;53.586;10.040;2023-11-22T11:25:49;13.23;;;4.10;;
7563;SDS011;3823;53.586;10.040;2023-11-22T11:28:15;8.20;;;4.55;;
7563;SDS011;3823;53.586;10.040;2023-11-22T11:33:08;6.30;;;4.18;;
7563;SDS011;3823;53.586;10.040;2023-11-22T11:35:37;7.35;;;3.78;;
7563;SDS011;3823;53.586;10.040;2023-11-22T11:38:04;6.05;;;3.92;;
7563;SDS011;3823;53.586;10.040;2023-11-22T11:40:34;7.72;;;3.40;;
7563;SDS011;3823;53.586;10.040;2023-11-22T11:43:00;6.57;;;3.72;;
7563;SDS011;3823;53.586;10.040;2023-11-22T11:45:26;3.90;;;3.28;;
7563;SDS011;3823;53.586;10.040;2023-11-22T11:47:52;6.68;;;3.92;;
7563;SDS011;3823;53.586;10.040;2023-11-22T11:50:20;6.65;;;3.95;;
7563;SDS011;3823;53.586;10.040;2023-11-22T11:52:47;10.63;;;3.95;;
7563;SDS011;3823;53.586;10.040;2023-11-22T11:55:13;4.07;;;3.72;;
7563;SDS011;3823;53.586;10.040;2023-11-22T11:57:38;5.80;;;3.95;;
7563;SDS011;3823;53.586;10.040;2023-11-22T12:00:07;6.28;;;4.72;;
7563;SDS011;3823;53.586;10.040;2023-11-22T12:02:34;5.32;;;3.58;;
7563;SDS011;3823;53.586;10.040;2023-11-22T12:05:00;10.10;;;4.72;;
7563;SDS011;3823;53.586;10.040;2023-11-22T12:07:31;5.63;;;3.60;;
7563;SDS011;3823;53.586;10.040;2023-11-22T12:09:56;4.32;;;3.90;;
7563;SDS011;3823;53.586;10.040;2023-11-22T12:12:22;13.07;;;3.08;;
7563;SDS011;3823;53.586;10.040;2023-11-22T12:14:48;6.28;;;3.92;;
7563;SDS011;3823;53.586;10.040;2023-11-22T12:17:14;5.55;;;3.60;;
7563;SDS011;3823;53.586;10.040;2023-11-22T12:19:41;3.63;;;3.33;;
7563;SDS011;3823;53.586;10.040;2023-11-22T12:22:07;10.60;;;3.10;;
7563;SDS011;3823;53.586;10.040;2023-11-22T12:24:33;2.20;;;1.98;;
7563;SDS011;3823;53.586;10.040;2023-11-22T12:26:59;4.55;;;3.03;;
7563;SDS011;3823;53.586;10.040;2023-11-22T12:29:25;3.10;;;2.80;;
7563;SDS011;3823;53.586;10.040;2023-11-22T12:31:50;4.15;;;2.42;;
7563;SDS011;3823;53.586;10.040;2023-11-22T12:34:18;3.25;;;2.60;;
7563;SDS011;3823;53.586;10.040;2023-11-22T12:36:45;4.15;;;2.50;;
7563;SDS011;3823;53.586;10.040;2023-11-22T12:39:14;4.43;;;2.25;;
7563;SDS011;3823;53.586;10.040;2023-11-22T12:41:44;4.28;;;2.50;;
7563;SDS011;3823;53.586;10.040;2023-11-22T12:44:10;2.83;;;1.85;;
7563;SDS011;3823;53.586;10.040;2023-11-22T12:46:49;4.93;;;2.13;;
7563;SDS011;3823;53.586;10.040;2023-11-22T12:49:21;2.00;;;1.73;;
7563;SDS011;3823;53.586;10.040;2023-11-22T12:51:50;5.13;;;2.42;;
7563;SDS011;3823;53.586;10.040;2023-11-22T12:54:17;3.42;;;1.95;;
7563;SDS011;3823;53.586;10.040;2023-11-22T12:56:46;4.40;;;2.63;;
7563;SDS011;3823;53.586;10.040;2023-11-22T12:59:24;2.42;;;2.15;;
7563;SDS011;3823;53.586;10.040;2023-11-22T13:01:52;2.30;;;2.03;;
7563;SDS011;3823;53.586;10.040;2023-11-22T13:04:19;2.40;;;2.20;;
7563;SDS011;3823;53.586;10.040;2023-11-22T13:06:45;7.30;;;2.38;;
7563;SDS011;3823;53.586;10.040;2023-11-22T13:09:10;2.38;;;1.33;;
7563;SDS011;3823;53.586;10.040;2023-11-22T13:11:40;1.40;;;1.08;;
7563;SDS011;3823;53.586;10.040;2023-11-22T13:14:07;4.45;;;1.50;;
7563;SDS011;3823;53.586;10.040;2023-11-22T13:16:33;2.00;;;0.88;;
7563;SDS011;3823;53.586;10.040;2023-11-22T13:18:59;1.30;;;0.80;;
7563;SDS011;3823;53.586;10.040;2023-11-22T13:21:25;13.50;;;1.40;;
7563;SDS011;3823;53.586;10.040;2023-11-22T13:23:51;2.05;;;0.95;;
7563;SDS011;3823;53.586;10.040;2023-11-22T13:26:17;3.03;;;0.80;;
7563;SDS011;3823;53.586;10.040;2023-11-22T13:28:42;1.50;;;0.80;;
7563;SDS011;3823;53.586;10.040;2023-11-22T13:31:08;1.50;;;0.70;;
7563;SDS011;3823;53.586;10.040;2023-11-22T13:33:34;1.20;;;0.70;;
7563;SDS011;3823;53.586;10.040;2023-11-22T13:36:00;1.55;;;1.00;;
7563;SDS011;3823;53.586;10.040;2023-11-22T13:38:26;2.40;;;1.20;;
7563;SDS011;3823;53.586;10.040;2023-11-22T13:40:51;1.42;;;0.90;;
7563;SDS011;3823;53.586;10.040;2023-11-22T13:43:17;3.30;;;0.90;;
7563;SDS011;3823;53.586;10.040;2023-11-22T13:45:45;3.20;;;1.10;;
7563;SDS011;3823;53.586;10.040;2023-11-22T13:48:10;1.50;;;0.85;;
7563;SDS011;3823;53.586;10.040;2023-11-22T13:50:36;2.67;;;0.90;;
7563;SDS011;3823;53.586;10.040;2023-11-22T13:53:02;1.30;;;1.08;;
7563;SDS011;3823;53.586;10.040;2023-11-22T13:55:29;1.85;;;0.80;;
7563;SDS011;3823;53.586;10.040;2023-11-22T13:57:59;1.70;;;1.10;;
7563;SDS011;3823;53.586;10.040;2023-11-22T14:00:26;1.40;;;0.93;;
7563;SDS011;3823;53.586;10.040;2023-11-22T14:02:58;1.40;;;0.75;;
7563;SDS011;3823;53.586;10.040;2023-11-22T14:05:31;1.80;;;1.08;;
7563;SDS011;3823;53.586;10.040;2023-11-22T14:07:57;1.75;;;0.60;;
7563;SDS011;3823;53.586;10.040;2023-11-22T14:10:23;1.73;;;0.90;;
7563;SDS011;3823;53.586;10.040;2023-11-22T14:12:49;1.50;;;0.80;;
7563;SDS011;3823;53.586;10.040;2023-11-22T14:15:16;1.48;;;0.70;;
7563;SDS011;3823;53.586;10.040;2023-11-22T14:17:41;1.50;;;1.00;;
7563;SDS011;3823;53.586;10.040;2023-11-22T14:20:09;1.60;;;1.20;;
7563;SDS011;3823;53.586;10.040;2023-11-22T14:22:39;2.60;;;1.30;;
7563;SDS011;3823;53.586;10.040;2023-11-22T14:25:06;1.83;;;1.05;;
7563;SDS011;3823;53.586;10.040;2023-11-22T14:27:40;1.33;;;0.80;;
7563;SDS011;3823;53.586;10.040;2023-11-22T14:30:08;1.75;;;0.90;;
7563;SDS011;3823;53.586;10.040;2023-11-22T14:32:35;3.80;;;1.27;;
7563;SDS011;3823;53.586;10.040;2023-11-22T14:35:01;1.50;;;1.20;;
7563;SDS011;3823;53.586;10.040;2023-11-22T14:37:28;1.50;;;0.95;;
7563;SDS011;3823;53.586;10.040;2023-11-22T14:39:54;1.50;;;1.10;;
7563;SDS011;3823;53.586;10.040;2023-11-22T14:42:19;1.40;;;0.75;;
7563;SDS011;3823;53.586;10.040;2023-11-22T14:44:45;2.67;;;0.95;;
7563;SDS011;3823;53.586;10.040;2023-11-22T14:47:10;1.65;;;1.10;;
7563;SDS011;3823;53.586;10.040;2023-11-22T14:49:44;3.05;;;1.48;;
7563;SDS011;3823;53.586;10.040;2023-11-22T14:52:10;2.33;;;1.50;;
7563;SDS011;3823;53.586;10.040;2023-11-22T14:54:35;1.70;;;1.38;;
7563;SDS011;3823;53.586;10.040;2023-11-22T14:57:01;2.72;;;1.35;;
7563;SDS011;3823;53.586;10.040;2023-11-22T14:59:28;2.95;;;2.03;;
7563;SDS011;3823;53.586;10.040;2023-11-22T15:01:56;2.95;;;1.65;;
7563;SDS011;3823;53.586;10.040;2023-11-22T15:04:23;2.33;;;1.33;;
7563;SDS011;3823;53.586;10.040;2023-11-22T15:06:49;3.75;;;2.45;;
7563;SDS011;3823;53.586;10.040;2023-11-22T15:09:15;2.95;;;1.70;;